Arapahoe, Wyoming
Current Conditions -  °F | °C
As of 8:53 AM on Wednesday 26 Nov 2014 (Local Time) from KRIW Reporting Station
Overcast Overcast  
Wind Chill: 21°   Ceiling: 1200
Heat Index: 26°   Visibility: 10mi
Dew Point: 21°   Wind: 5mph
Humidity: 81%   Direction: 90°E
Pressure: 30.13"   Gusts: NA
Location:  42.96°N, 108.49°W
Report Text: KRIW 261553Z AUTO 09004KT 10SM OVC012 M03/M06 A3013 RMK AO2 SLP235 T10331061
Loading
Personal Weather Stations






























Interactive Weather Map New forecast layout! Learn more

10-Day Weather Forecast

Advertisements
Track Severe Weather on mobile